Parvin, Pennsylvania
Current Conditions -  °F | °C
As of 10:35 PM on Sunday 23 Nov 2014 (Local Time) from KUNV Reporting Station
Moderate Rain Moderate Rain  
Wind Chill: 44°   Ceiling: 2400
Heat Index: 48°   Visibility: 10mi
Dew Point: 42°   Wind: 9mph
Humidity: 79%   Direction: 160°SSE
Pressure: 29.84"   Gusts: NA
Location:  41.0898°N, 77.4915°W
Report Text: KUNV 240335Z AUTO 16008KT 10SM RA OVC024 09/06 A2984 RMK AO2 P0001 T00910056
Loading
Personal Weather Stations






























Interactive Weather Map New forecast layout! Learn more

10-Day Weather Forecast

Advertisements
Track Severe Weather on mobile